Osage, Texas
Current Conditions -  °F | °C
As of 3:55 PM on Saturday 25 Oct 2014 (Local Time) from K66R Reporting Station
Clear Clear  
Wind Chill: 85°   Ceiling: Unl
Heat Index: 86°   Visibility: 10mi
Dew Point: 62°   Wind: 3mph
Humidity: 45%   Direction: 90°E
Pressure: 30.09"   Gusts: NA
Location:  29.6229°N, 96.7031°W
Report Text: K66R 252055Z AUTO 09003KT 10SM CLR 30/16 A3009 RMK AO2 T02960164
Loading
Personal Weather Stations






























Interactive Weather Map
Tropical Storm Tracking
New forecast layout! Learn more

10-Day Weather Forecast

Advertisements
Track Severe Weather on mobile